Time;durP1;ratioP1;P1;durP2;ratioP2;P2;SDS_P1;SDS_P2;PMS_P1;PMS_P2;Temp;Humidity;BMP_temperature;BMP_pressure;BME280_temperature;BME280_humidity;BME280_pressure;Samples;Min_cycle;Max_cycle;Signal;HPM_P1;HPM_P2
2021/11/17 02:27:05;;;;;;;35.88;20.58;;;;;;;;;;4922642;29;20247;-79
2021/11/17 02:29:31;;;;;;;37.15;20.48;;;;;;;;;;4907126;29;20307;-78
2021/11/17 02:31:57;;;;;;;37.83;20.67;;;;;;;;;;4917268;29;20223;-79
2021/11/17 02:34:30;;;;;;;43.67;20.93;;;;;;;;;;4921467;29;20489;-78
2021/11/17 02:36:56;;;;;;;35.83;17.90;;;;;;;;;;4928143;28;20451;-78
2021/11/17 02:39:28;;;;;;;30.33;18.80;;;;;;;;;;4983578;28;20203;-79
2021/11/17 02:42:04;;;;;;;34.20;18.48;;;;;;;;;;4979121;28;20891;-78
2021/11/17 02:44:36;;;;;;;37.53;21.52;;;;;;;;;;4982280;28;20179;-78
2021/11/17 02:47:08;;;;;;;39.60;20.58;;;;;;;;;;4979977;28;20279;-79
2021/11/17 02:49:53;;;;;;;39.38;21.33;;;;;;;;;;4998391;28;20218;-79
2021/11/17 02:52:25;;;;;;;35.10;18.67;;;;;;;;;;4996329;28;20193;-79
2021/11/17 02:55:00;;;;;;;31.38;18.95;;;;;;;;;;4980335;28;20612;-79
2021/11/17 02:57:44;;;;;;;33.88;18.63;;;;;;;;;;4985041;28;20199;-79
2021/11/17 03:00:20;;;;;;;35.58;19.77;;;;;;;;;;4980296;28;20635;-78
2021/11/17 03:03:04;;;;;;;28.67;16.90;;;;;;;;;;4982244;28;20183;-78
2021/11/17 03:05:45;;;;;;;34.63;18.90;;;;;;;;;;4978594;28;20199;-78
2021/11/17 03:08:18;;;;;;;37.60;20.33;;;;;;;;;;4978938;28;20251;-78
2021/11/17 03:10:54;;;;;;;38.75;19.95;;;;;;;;;;4972995;28;20234;-78
2021/11/17 03:13:39;;;;;;;30.58;17.77;;;;;;;;;;4988981;28;20192;-78
2021/11/17 03:16:05;;;;;;;36.70;23.05;;;;;;;;;;4969273;28;20795;-78
2021/11/17 03:18:50;;;;;;;36.70;20.60;;;;;;;;;;4984223;28;20179;-78
2021/11/17 03:21:28;;;;;;;33.40;17.90;;;;;;;;;;4994032;28;20871;-78
2021/11/17 03:24:04;;;;;;;35.65;19.88;;;;;;;;;;4997461;28;20370;-79
2021/11/17 03:26:39;;;;;;;32.60;17.48;;;;;;;;;;4979226;28;20263;-79
2021/11/17 03:29:11;;;;;;;40.05;21.70;;;;;;;;;;4994730;28;20239;-78
2021/11/17 03:31:53;;;;;;;36.72;19.52;;;;;;;;;;4982726;28;20188;-79
2021/11/17 03:34:19;;;;;;;33.58;17.60;;;;;;;;;;4995619;28;20274;-79
2021/11/17 03:37:03;;;;;;;34.30;20.00;;;;;;;;;;4979556;28;20641;-79
2021/11/17 03:39:32;;;;;;;33.30;17.63;;;;;;;;;;4986604;28;20446;-78
2021/11/17 03:42:04;;;;;;;38.70;20.95;;;;;;;;;;4978133;28;20243;-78
2021/11/17 03:44:54;;;;;;;34.38;18.88;;;;;;;;;;4980466;28;20434;-78
2021/11/17 03:47:19;;;;;;;34.05;18.33;;;;;;;;;;4972926;28;20247;-78
2021/11/17 03:50:02;;;;;;;31.07;18.43;;;;;;;;;;4980582;28;20580;-78
2021/11/17 03:52:31;;;;;;;28.95;18.35;;;;;;;;;;4996788;28;20451;-79
2021/11/17 03:55:04;;;;;;;38.13;19.60;;;;;;;;;;4981980;28;20216;-78
2021/11/17 03:57:36;;;;;;;33.40;17.25;;;;;;;;;;4967390;28;20184;-78
2021/11/17 04:00:05;;;;;;;36.75;19.38;;;;;;;;;;4989427;28;20177;-78
2021/11/17 04:02:40;;;;;;;34.53;19.25;;;;;;;;;;4976793;28;20188;-78
2021/11/17 04:05:24;;;;;;;33.90;19.20;;;;;;;;;;4996508;28;20234;-78
2021/11/17 04:07:50;;;;;;;31.70;18.42;;;;;;;;;;4969051;28;20183;-78
2021/11/17 04:10:36;;;;;;;27.43;18.27;;;;;;;;;;4960622;28;20224;-79
2021/11/17 04:13:02;;;;;;;36.95;18.00;;;;;;;;;;4980865;28;20466;-79
2021/11/17 04:15:46;;;;;;;35.17;17.83;;;;;;;;;;4999858;28;20196;-79
2021/11/17 04:18:18;;;;;;;33.08;18.75;;;;;;;;;;4969302;28;20423;-79
2021/11/17 04:20:44;;;;;;;31.20;16.95;;;;;;;;;;4980086;28;20279;-79
2021/11/17 04:23:37;;;;;;;34.20;17.73;;;;;;;;;;4980326;28;20223;-80
2021/11/17 04:26:13;;;;;;;38.28;17.42;;;;;;;;;;4968176;28;20460;-80
2021/11/17 04:28:39;;;;;;;29.30;18.00;;;;;;;;;;4964631;28;20198;-80
2021/11/17 04:31:05;;;;;;;28.20;16.60;;;;;;;;;;4980501;28;20259;-80
2021/11/17 04:33:31;;;;;;;33.07;17.33;;;;;;;;;;4983726;28;20431;-80
2021/11/17 04:36:00;;;;;;;28.93;17.00;;;;;;;;;;4980126;28;21142;-79
2021/11/17 04:38:41;;;;;;;34.08;18.15;;;;;;;;;;4979590;28;20538;-79
2021/11/17 04:41:10;;;;;;;32.40;17.90;;;;;;;;;;4947161;28;20765;-79
2021/11/17 04:43:42;;;;;;;31.75;17.23;;;;;;;;;;4995767;28;20272;-80
2021/11/17 04:46:08;;;;;;;28.55;15.82;;;;;;;;;;4995587;28;20212;-79
2021/11/17 04:48:36;;;;;;;28.30;16.10;;;;;;;;;;4982673;28;20184;-80
2021/11/17 04:51:18;;;;;;;28.85;17.00;;;;;;;;;;4996888;28;20428;-79
2021/11/17 04:53:53;;;;;;;30.35;14.60;;;;;;;;;;4965150;28;20214;-79
2021/11/17 04:56:30;;;;;;;26.15;15.15;;;;;;;;;;4995504;28;20202;-79
2021/11/17 04:59:02;;;;;;;31.75;15.15;;;;;;;;;;4979163;28;20780;-79
2021/11/17 05:01:35;;;;;;;33.58;17.55;;;;;;;;;;4979803;28;20327;-80
2021/11/17 05:04:01;;;;;;;32.08;16.85;;;;;;;;;;4997454;28;20199;-78
2021/11/17 05:06:42;;;;;;;32.37;16.20;;;;;;;;;;4980141;28;20184;-79
2021/11/17 05:09:08;;;;;;;29.00;16.70;;;;;;;;;;4995621;28;20443;-80
2021/11/17 05:11:40;;;;;;;29.33;15.17;;;;;;;;;;5009796;28;20291;-79
2021/11/17 05:14:09;;;;;;;27.05;14.70;;;;;;;;;;4963405;28;20557;-79
2021/11/17 05:16:38;;;;;;;34.85;17.40;;;;;;;;;;4995669;28;20180;-79
2021/11/17 05:19:05;;;;;;;31.80;16.50;;;;;;;;;;4992300;28;20279;-79
2021/11/17 05:21:40;;;;;;;27.75;15.38;;;;;;;;;;4978980;28;20229;-79
2021/11/17 05:24:18;;;;;;;29.08;16.33;;;;;;;;;;4976491;28;20190;-80
2021/11/17 05:27:04;;;;;;;27.52;15.50;;;;;;;;;;4992907;28;20177;-80
2021/11/17 05:29:30;;;;;;;25.73;15.65;;;;;;;;;;4958658;28;20223;-79
2021/11/17 05:32:11;;;;;;;26.43;14.50;;;;;;;;;;4993546;28;20196;-79
2021/11/17 05:34:43;;;;;;;26.90;16.23;;;;;;;;;;4995046;28;20466;-80
2021/11/17 05:37:36;;;;;;;25.98;15.65;;;;;;;;;;4990970;28;20195;-80
2021/11/17 05:40:08;;;;;;;26.48;15.45;;;;;;;;;;4991113;28;20192;-80
2021/11/17 05:42:47;;;;;;;30.73;15.75;;;;;;;;;;4995767;28;20210;-80
2021/11/17 05:45:35;;;;;;;32.20;15.35;;;;;;;;;;4983373;28;20176;-80
2021/11/17 05:48:04;;;;;;;29.85;16.77;;;;;;;;;;4980968;28;20172;-79
2021/11/17 05:50:36;;;;;;;31.02;16.50;;;;;;;;;;4990356;28;20219;-79
2021/11/17 05:53:17;;;;;;;30.50;15.90;;;;;;;;;;4978296;28;20184;-79
2021/11/17 05:55:43;;;;;;;35.75;17.42;;;;;;;;;;4988695;28;20211;-78
2021/11/17 05:58:12;;;;;;;30.02;15.82;;;;;;;;;;4979870;28;20184;-79
2021/11/17 06:00:38;;;;;;;28.90;16.17;;;;;;;;;;4977341;28;20211;-78
2021/11/17 06:03:04;;;;;;;30.63;16.80;;;;;;;;;;4992998;28;20199;-79
2021/11/17 06:05:30;;;;;;;26.77;15.47;;;;;;;;;;4979666;28;20441;-78
2021/11/17 06:07:56;;;;;;;25.73;15.27;;;;;;;;;;4992837;28;20452;-79
2021/11/17 06:10:38;;;;;;;28.75;16.08;;;;;;;;;;4979509;28;20181;-78
2021/11/17 06:13:05;;;;;;;28.42;16.45;;;;;;;;;;4973974;28;20266;-79
2021/11/17 06:15:32;;;;;;;27.00;15.63;;;;;;;;;;4986658;28;20207;-79
2021/11/17 06:18:00;;;;;;;24.70;13.18;;;;;;;;;;4983299;28;20179;-79
2021/11/17 06:20:27;;;;;;;23.27;13.75;;;;;;;;;;4980266;28;20176;-79
2021/11/17 06:22:55;;;;;;;27.67;14.32;;;;;;;;;;4984021;28;20538;-78
2021/11/17 06:25:21;;;;;;;30.67;16.20;;;;;;;;;;4996851;28;20187;-79
2021/11/17 06:28:01;;;;;;;31.83;15.52;;;;;;;;;;4982002;28;20203;-78
2021/11/17 06:30:27;;;;;;;25.88;14.15;;;;;;;;;;5003031;28;20184;-79
2021/11/17 06:32:56;;;;;;;24.02;14.95;;;;;;;;;;4999852;28;20199;-78
2021/11/17 06:35:22;;;;;;;28.52;14.77;;;;;;;;;;4978572;28;20204;-79
2021/11/17 06:37:49;;;;;;;29.45;16.40;;;;;;;;;;4999199;28;20191;-78
2021/11/17 06:40:16;;;;;;;34.30;16.75;;;;;;;;;;4982981;28;20191;-78
2021/11/17 06:42:54;;;;;;;29.10;15.75;;;;;;;;;;4980355;28;20197;-78
2021/11/17 06:45:22;;;;;;;24.65;15.25;;;;;;;;;;4997017;28;20183;-78
2021/11/17 06:47:48;;;;;;;30.00;16.10;;;;;;;;;;4979220;28;20195;-78
2021/11/17 06:50:15;;;;;;;25.88;14.07;;;;;;;;;;4993732;28;20188;-78
2021/11/17 06:52:41;;;;;;;24.77;14.18;;;;;;;;;;4981576;28;20207;-79
2021/11/17 06:55:08;;;;;;;27.58;17.63;;;;;;;;;;4984888;28;20563;-78
2021/11/17 06:57:34;;;;;;;29.25;16.15;;;;;;;;;;4998189;28;20176;-79
2021/11/17 07:00:00;;;;;;;30.98;16.25;;;;;;;;;;4995815;28;20179;-79
2021/11/17 07:02:26;;;;;;;31.38;14.63;;;;;;;;;;4996370;28;20521;-79
2021/11/17 07:04:52;;;;;;;29.15;15.80;;;;;;;;;;4982193;28;20230;-79
2021/11/17 07:07:18;;;;;;;27.35;15.57;;;;;;;;;;4979605;28;20259;-78
2021/11/17 07:09:44;;;;;;;36.63;17.47;;;;;;;;;;4996032;28;20223;-78
2021/11/17 07:12:12;;;;;;;26.17;15.55;;;;;;;;;;4981525;28;20466;-78
2021/11/17 07:14:38;;;;;;;33.97;17.08;;;;;;;;;;4996476;28;20218;-80
2021/11/17 07:17:04;;;;;;;25.95;14.45;;;;;;;;;;4991131;28;20248;-80
2021/11/17 07:19:31;;;;;;;30.05;16.10;;;;;;;;;;4981008;28;20650;-79
2021/11/17 07:21:58;;;;;;;30.17;17.48;;;;;;;;;;4995895;28;20179;-80
2021/11/17 07:24:25;;;;;;;24.23;14.18;;;;;;;;;;4973599;28;20264;-80
2021/11/17 07:26:51;;;;;;;25.77;16.27;;;;;;;;;;4994658;28;20180;-80
2021/11/17 07:29:17;;;;;;;28.35;15.77;;;;;;;;;;4980067;28;20187;-80
2021/11/17 07:31:44;;;;;;;27.53;16.23;;;;;;;;;;4995162;28;20202;-80
2021/11/17 07:34:11;;;;;;;21.27;14.57;;;;;;;;;;4988469;28;20474;-80
2021/11/17 07:36:37;;;;;;;31.63;16.67;;;;;;;;;;4992611;28;20179;-79
2021/11/17 07:39:04;;;;;;;29.35;17.77;;;;;;;;;;4984650;28;20180;-79
2021/11/17 07:41:30;;;;;;;24.40;15.50;;;;;;;;;;4980724;28;20188;-79
2021/11/17 07:43:56;;;;;;;30.88;15.57;;;;;;;;;;4976588;28;20777;-80
2021/11/17 07:46:22;;;;;;;28.42;15.88;;;;;;;;;;4993578;28;20211;-80
2021/11/17 07:48:48;;;;;;;28.67;16.35;;;;;;;;;;4980535;28;20402;-80
2021/11/17 07:51:15;;;;;;;25.27;16.48;;;;;;;;;;4984172;28;20251;-79
2021/11/17 07:53:42;;;;;;;28.75;14.95;;;;;;;;;;4997488;28;20214;-79
2021/11/17 07:56:08;;;;;;;27.70;15.68;;;;;;;;;;4980378;28;20212;-79
2021/11/17 07:58:44;;;;;;;32.35;17.60;;;;;;;;;;4979898;28;20184;-79
2021/11/17 08:01:10;;;;;;;27.75;16.23;;;;;;;;;;4995837;28;20180;-80
2021/11/17 08:03:39;;;;;;;27.27;15.40;;;;;;;;;;4981803;28;20203;-80
2021/11/17 08:06:05;;;;;;;29.90;17.33;;;;;;;;;;4999061;28;20187;-79
2021/11/17 08:08:31;;;;;;;31.23;16.73;;;;;;;;;;4981658;28;20188;-79
2021/11/17 08:10:58;;;;;;;28.35;15.88;;;;;;;;;;4979428;28;20228;-80
2021/11/17 08:13:25;;;;;;;31.92;17.35;;;;;;;;;;5011043;28;20192;-80
2021/11/17 08:15:51;;;;;;;32.25;16.55;;;;;;;;;;4979216;28;20208;-80
2021/11/17 08:18:17;;;;;;;25.63;15.63;;;;;;;;;;4993195;28;20187;-80
2021/11/17 08:20:43;;;;;;;33.15;15.82;;;;;;;;;;4983099;28;20183;-80
2021/11/17 08:23:09;;;;;;;33.08;16.23;;;;;;;;;;4993701;28;20471;-79
2021/11/17 08:25:36;;;;;;;35.27;17.47;;;;;;;;;;4982579;28;20187;-79
2021/11/17 08:28:03;;;;;;;28.42;16.92;;;;;;;;;;4978250;28;20473;-79
2021/11/17 08:30:31;;;;;;;27.58;16.10;;;;;;;;;;4998572;28;20335;-80
2021/11/17 08:32:57;;;;;;;24.80;14.68;;;;;;;;;;4977038;28;20221;-80
2021/11/17 08:35:25;;;;;;;28.55;15.48;;;;;;;;;;4984275;28;20238;-78
2021/11/17 08:37:53;;;;;;;31.33;16.50;;;;;;;;;;4983839;28;20211;-79
2021/11/17 08:40:21;;;;;;;27.75;15.43;;;;;;;;;;4981153;28;20192;-80
2021/11/17 08:42:47;;;;;;;29.08;14.80;;;;;;;;;;4998085;28;20661;-79
2021/11/17 08:45:14;;;;;;;28.80;14.73;;;;;;;;;;4976702;28;20247;-80
2021/11/17 08:47:41;;;;;;;29.50;15.95;;;;;;;;;;4976790;28;20188;-79
2021/11/17 08:50:09;;;;;;;23.92;15.82;;;;;;;;;;4993046;28;20276;-80
2021/11/17 08:52:35;;;;;;;29.85;15.50;;;;;;;;;;4981711;28;20231;-79
2021/11/17 08:55:01;;;;;;;32.95;15.38;;;;;;;;;;4996372;28;20203;-79
2021/11/17 08:57:27;;;;;;;29.85;17.10;;;;;;;;;;4992370;28;20190;-80
2021/11/17 08:59:53;;;;;;;24.27;13.60;;;;;;;;;;4980355;28;20207;-79
2021/11/17 09:02:20;;;;;;;26.15;15.02;;;;;;;;;;4977716;28;20187;-79
2021/11/17 09:04:46;;;;;;;24.98;13.77;;;;;;;;;;5010464;28;20211;-80
2021/11/17 09:07:13;;;;;;;25.58;14.57;;;;;;;;;;4976089;28;20184;-80
2021/11/17 09:09:39;;;;;;;24.30;15.25;;;;;;;;;;4995575;28;20184;-80
2021/11/17 09:12:05;;;;;;;30.38;15.18;;;;;;;;;;4987198;28;20292;-80
2021/11/17 09:14:32;;;;;;;32.25;15.05;;;;;;;;;;4980255;28;20246;-79
2021/11/17 09:16:58;;;;;;;26.92;15.38;;;;;;;;;;4981174;28;20556;-80
2021/11/17 09:19:24;;;;;;;26.80;14.70;;;;;;;;;;4996029;28;20256;-79
2021/11/17 09:21:50;;;;;;;25.80;14.50;;;;;;;;;;4996512;28;20208;-80
2021/11/17 09:24:17;;;;;;;23.73;14.80;;;;;;;;;;4982478;28;20434;-79
2021/11/17 09:26:46;;;;;;;23.77;14.70;;;;;;;;;;4980742;28;20217;-79
2021/11/17 09:29:12;;;;;;;24.98;14.77;;;;;;;;;;4994951;28;20195;-79
2021/11/17 09:31:43;;;;;;;23.92;13.50;;;;;;;;;;4995608;28;20267;-79
2021/11/17 09:34:09;;;;;;;24.13;13.65;;;;;;;;;;4981620;28;20204;-79
2021/11/17 09:36:36;;;;;;;32.35;15.30;;;;;;;;;;4983386;28;20184;-79
2021/11/17 09:39:05;;;;;;;25.00;14.65;;;;;;;;;;4997468;28;20182;-79
2021/11/17 09:41:42;;;;;;;21.73;13.85;;;;;;;;;;4995103;28;20724;-81
2021/11/17 09:44:25;;;;;;;24.15;13.57;;;;;;;;;;4979904;28;20196;-81
2021/11/17 09:46:52;;;;;;;23.00;14.38;;;;;;;;;;4978557;28;20187;-81
2021/11/17 09:49:20;;;;;;;24.33;13.05;;;;;;;;;;4997276;28;20359;-82
2021/11/17 09:51:51;;;;;;;24.75;14.43;;;;;;;;;;4997493;28;20234;-82
2021/11/17 09:54:22;;;;;;;21.35;13.45;;;;;;;;;;4982961;28;20203;-81
2021/11/17 09:56:55;;;;;;;18.15;12.30;;;;;;;;;;4994999;28;20213;-82
2021/11/17 09:59:23;;;;;;;20.27;11.80;;;;;;;;;;4979410;28;20190;-83
2021/11/17 10:01:53;;;;;;;21.90;11.80;;;;;;;;;;4994750;28;20180;-82
2021/11/17 10:04:21;;;;;;;18.70;11.38;;;;;;;;;;4994781;28;20191;-82
2021/11/17 10:15:02;;;;;;;19.63;12.25;;;;;;;;;;4980531;28;20247;-81
2021/11/17 10:17:30;;;;;;;19.80;12.38;;;;;;;;;;4978050;28;20218;-82
2021/11/17 10:20:04;;;;;;;16.35;10.63;;;;;;;;;;4994825;28;20180;-82
2021/11/17 10:22:30;;;;;;;15.13;10.50;;;;;;;;;;4981057;28;20184;-82
2021/11/17 10:25:05;;;;;;;16.65;10.52;;;;;;;;;;4980855;28;20199;-82
2021/11/17 10:27:32;;;;;;;13.07;9.07;;;;;;;;;;4980734;28;20190;-82
2021/11/17 10:30:04;;;;;;;15.40;10.63;;;;;;;;;;4994343;28;20192;-82
2021/11/17 10:32:38;;;;;;;18.27;11.07;;;;;;;;;;4980669;28;20219;-80
2021/11/17 10:35:07;;;;;;;17.92;10.20;;;;;;;;;;4995704;28;20271;-80
2021/11/17 10:37:56;;;;;;;14.27;10.30;;;;;;;;;;4977464;28;20180;-82
2021/11/17 10:40:25;;;;;;;13.65;9.02;;;;;;;;;;4975143;28;20837;-81
2021/11/17 10:43:01;;;;;;;17.52;10.48;;;;;;;;;;4977573;28;20708;-81
2021/11/17 10:45:29;;;;;;;14.65;8.55;;;;;;;;;;4980233;28;20487;-81
2021/11/17 10:47:55;;;;;;;16.02;9.05;;;;;;;;;;4978006;28;20203;-81
2021/11/17 10:50:21;;;;;;;15.75;8.85;;;;;;;;;;4976154;28;20200;-81
2021/11/17 10:52:53;;;;;;;14.80;9.00;;;;;;;;;;4974807;28;20287;-79
2021/11/17 10:55:39;;;;;;;9.50;8.00;;;;;;;;;;4960671;28;20463;-80
2021/11/17 10:58:07;;;;;;;16.40;7.35;;;;;;;;;;4964632;28;20715;-81
2021/11/17 11:00:38;;;;;;;18.88;8.25;;;;;;;;;;4978391;28;20203;-81
2021/11/17 11:03:05;;;;;;;12.70;7.72;;;;;;;;;;4971533;28;20191;-81
2021/11/17 11:05:45;;;;;;;10.27;8.18;;;;;;;;;;4981820;28;20203;-80
2021/11/17 11:08:19;;;;;;;10.98;7.22;;;;;;;;;;4980650;28;20200;-81
2021/11/17 11:10:49;;;;;;;12.38;7.45;;;;;;;;;;4971903;28;21053;-80
2021/11/17 11:13:37;;;;;;;10.80;7.95;;;;;;;;;;4966047;28;20231;-80
2021/11/17 11:16:14;;;;;;;7.70;6.25;;;;;;;;;;4982026;28;20200;-81
2021/11/17 11:18:49;;;;;;;10.50;7.10;;;;;;;;;;4982647;28;20673;-80
2021/11/17 11:21:17;;;;;;;10.35;6.90;;;;;;;;;;5001307;28;20176;-80
2021/11/17 11:24:15;;;;;;;10.75;6.30;;;;;;;;;;4984470;28;20180;-80
2021/11/17 11:27:04;;;;;;;7.80;6.75;;;;;;;;;;4998096;28;20201;-82
2021/11/17 11:29:33;;;;;;;9.15;7.50;;;;;;;;;;4976419;28;20677;-81
2021/11/17 11:32:05;;;;;;;11.98;7.35;;;;;;;;;;4981529;28;20190;-81
2021/11/17 11:34:33;;;;;;;10.40;7.03;;;;;;;;;;4983456;28;20214;-80
2021/11/17 11:37:00;;;;;;;10.02;5.65;;;;;;;;;;4980678;28;20193;-82
2021/11/17 11:39:27;;;;;;;11.40;7.00;;;;;;;;;;4992869;28;20175;-80
2021/11/17 11:42:08;;;;;;;6.93;6.28;;;;;;;;;;4979651;28;20176;-80
2021/11/17 11:44:40;;;;;;;6.60;4.80;;;;;;;;;;4981935;28;20766;-81
2021/11/17 11:47:09;;;;;;;5.28;4.68;;;;;;;;;;4995079;28;20184;-81
2021/11/17 11:49:38;;;;;;;8.30;4.65;;;;;;;;;;5001194;28;20200;-79
2021/11/17 11:52:04;;;;;;;6.32;4.80;;;;;;;;;;4993569;28;20198;-82
2021/11/17 11:54:33;;;;;;;6.80;4.35;;;;;;;;;;4997274;28;20223;-82
2021/11/17 11:57:02;;;;;;;3.00;2.58;;;;;;;;;;4981893;28;20368;-82
2021/11/17 11:59:30;;;;;;;9.35;3.05;;;;;;;;;;4979440;28;20192;-81
2021/11/17 12:02:10;;;;;;;7.53;3.30;;;;;;;;;;4987816;28;20207;-81
2021/11/17 12:04:41;;;;;;;4.93;3.15;;;;;;;;;;4997477;28;20251;-81
2021/11/17 12:07:09;;;;;;;7.35;3.50;;;;;;;;;;4992574;28;20191;-80
2021/11/17 12:09:37;;;;;;;4.90;2.97;;;;;;;;;;5000260;28;20742;-80
2021/11/17 12:12:27;;;;;;;8.32;2.95;;;;;;;;;;4972439;28;20686;-79
2021/11/17 12:14:55;;;;;;;4.28;3.05;;;;;;;;;;4976528;28;20259;-80
2021/11/17 12:17:26;;;;;;;6.35;4.07;;;;;;;;;;4979902;28;20180;-81
2021/11/17 12:19:57;;;;;;;5.95;2.80;;;;;;;;;;5004258;28;20180;-81
2021/11/17 12:22:38;;;;;;;4.45;3.50;;;;;;;;;;4981700;28;20180;-80
2021/11/17 12:25:17;;;;;;;6.47;3.03;;;;;;;;;;4995447;28;20199;-80
2021/11/17 12:27:43;;;;;;;6.15;3.25;;;;;;;;;;4996251;28;20267;-80
2021/11/17 12:30:45;;;;;;;4.45;3.20;;;;;;;;;;4982706;28;20644;-80
2021/11/17 12:33:18;;;;;;;5.28;2.42;;;;;;;;;;4939925;29;20195;-80
2021/11/17 12:35:46;;;;;;;3.45;2.00;;;;;;;;;;4938176;29;20220;-80
2021/11/17 12:38:18;;;;;;;5.57;1.85;;;;;;;;;;4937256;29;20338;-80
2021/11/17 12:40:48;;;;;;;2.67;2.47;;;;;;;;;;4938336;28;20189;-81
2021/11/17 12:43:29;;;;;;;6.05;3.28;;;;;;;;;;4940981;29;20232;-79
2021/11/17 12:46:01;;;;;;;6.03;2.90;;;;;;;;;;4956615;28;20580;-80
2021/11/17 12:48:32;;;;;;;2.22;1.80;;;;;;;;;;4944760;29;20199;-80
2021/11/17 12:51:03;;;;;;;5.35;1.73;;;;;;;;;;4940040;29;20195;-82
2021/11/17 12:53:33;;;;;;;4.47;2.22;;;;;;;;;;4940000;29;20205;-80
2021/11/17 12:56:05;;;;;;;3.22;2.05;;;;;;;;;;4941461;29;20663;-81
2021/11/17 12:58:36;;;;;;;4.32;2.00;;;;;;;;;;4957132;28;20721;-81
2021/11/17 13:01:10;;;;;;;2.85;2.00;;;;;;;;;;4956147;28;20201;-81
2021/11/17 13:03:48;;;;;;;5.78;2.10;;;;;;;;;;4926947;29;20191;-82
2021/11/17 13:06:28;;;;;;;3.35;1.95;;;;;;;;;;4944133;29;20245;-81
2021/11/17 13:09:09;;;;;;;5.53;2.28;;;;;;;;;;4996354;28;20186;-81
2021/11/17 13:11:46;;;;;;;3.72;2.60;;;;;;;;;;4989270;28;20231;-79
2021/11/17 13:14:32;;;;;;;4.60;2.20;;;;;;;;;;4978903;28;20204;-81
2021/11/17 13:17:07;;;;;;;2.80;2.17;;;;;;;;;;4980904;28;20188;-81
2021/11/17 13:19:33;;;;;;;4.25;2.47;;;;;;;;;;4997032;28;20182;-81
2021/11/17 13:22:18;;;;;;;4.03;2.40;;;;;;;;;;4995765;28;20225;-80
2021/11/17 13:24:45;;;;;;;4.25;2.30;;;;;;;;;;4995174;28;20603;-82
2021/11/17 13:27:11;;;;;;;2.72;2.38;;;;;;;;;;4983524;28;20543;-81
2021/11/17 13:29:56;;;;;;;4.35;2.47;;;;;;;;;;4978993;28;20810;-82
2021/11/17 13:32:22;;;;;;;3.53;2.13;;;;;;;;;;4993031;28;20181;-81
2021/11/17 13:34:50;;;;;;;8.23;2.38;;;;;;;;;;4981028;28;20211;-82
2021/11/17 13:37:22;;;;;;;3.38;2.60;;;;;;;;;;4995825;28;20180;-81
2021/11/17 13:39:52;;;;;;;9.05;2.50;;;;;;;;;;4982651;28;20232;-81
2021/11/17 13:42:18;;;;;;;2.05;1.85;;;;;;;;;;4997946;28;20177;-81
2021/11/17 13:44:44;;;;;;;4.75;2.45;;;;;;;;;;4995805;28;20208;-81
2021/11/17 13:47:12;;;;;;;4.40;2.00;;;;;;;;;;4981836;28;20197;-82
2021/11/17 13:49:43;;;;;;;4.65;2.60;;;;;;;;;;4996527;28;20438;-81
2021/11/17 13:52:10;;;;;;;2.92;1.80;;;;;;;;;;4990329;28;20194;-81
2021/11/17 13:54:37;;;;;;;3.70;1.75;;;;;;;;;;4998567;28;20502;-80
2021/11/17 13:57:05;;;;;;;4.88;2.05;;;;;;;;;;4995733;28;20180;-80
2021/11/17 13:59:31;;;;;;;5.03;2.42;;;;;;;;;;4995101;28;20187;-81
2021/11/17 14:01:57;;;;;;;5.60;3.80;;;;;;;;;;4997082;28;20183;-81
2021/11/17 14:04:24;;;;;;;3.30;2.90;;;;;;;;;;4980305;28;20475;-80
2021/11/17 14:06:51;;;;;;;3.45;2.00;;;;;;;;;;4997397;28;20663;-80
2021/11/17 14:09:17;;;;;;;5.70;2.30;;;;;;;;;;4997429;28;20178;-81
2021/11/17 14:11:43;;;;;;;3.65;1.85;;;;;;;;;;4990512;28;20230;-83
2021/11/17 14:14:09;;;;;;;2.20;1.85;;;;;;;;;;4995369;28;20218;-81
2021/11/17 14:16:35;;;;;;;3.70;1.97;;;;;;;;;;4993691;28;20179;-81
2021/11/17 14:19:01;;;;;;;2.33;1.95;;;;;;;;;;4980429;28;20488;-82
2021/11/17 14:21:27;;;;;;;3.95;2.47;;;;;;;;;;4976520;28;20183;-82
2021/11/17 14:23:54;;;;;;;5.38;1.92;;;;;;;;;;4990527;28;20191;-77
2021/11/17 14:26:21;;;;;;;6.95;2.90;;;;;;;;;;4996231;28;20184;-81
2021/11/17 14:28:52;;;;;;;2.55;1.80;;;;;;;;;;4978795;28;20183;-80
2021/11/17 14:31:20;;;;;;;4.55;1.80;;;;;;;;;;4993268;28;20191;-80
2021/11/17 14:33:50;;;;;;;4.15;1.70;;;;;;;;;;4986238;28;20183;-79
2021/11/17 14:36:17;;;;;;;4.25;2.00;;;;;;;;;;4986565;28;20238;-80
2021/11/17 14:38:43;;;;;;;3.40;2.13;;;;;;;;;;4996064;28;20288;-81
2021/11/17 14:41:09;;;;;;;4.05;2.38;;;;;;;;;;4976577;28;20194;-81
2021/11/17 14:43:35;;;;;;;4.85;2.40;;;;;;;;;;4999027;28;20172;-81
2021/11/17 14:46:01;;;;;;;5.07;2.03;;;;;;;;;;4984377;28;20191;-80
2021/11/17 14:48:27;;;;;;;3.00;1.60;;;;;;;;;;4987228;28;20182;-80
2021/11/17 14:50:55;;;;;;;4.38;1.95;;;;;;;;;;5000724;28;20648;-81
2021/11/17 14:53:21;;;;;;;2.45;1.65;;;;;;;;;;4983347;28;20198;-80
2021/11/17 14:55:48;;;;;;;6.65;2.05;;;;;;;;;;4998327;28;20217;-80
2021/11/17 14:58:14;;;;;;;3.30;2.00;;;;;;;;;;4998794;28;20207;-80
2021/11/17 15:00:42;;;;;;;2.90;1.80;;;;;;;;;;5001889;28;20176;-80
2021/11/17 15:03:08;;;;;;;2.22;2.00;;;;;;;;;;4999831;28;20643;-81
2021/11/17 15:05:34;;;;;;;2.92;1.98;;;;;;;;;;4983869;28;20266;-80
2021/11/17 15:08:00;;;;;;;4.80;2.75;;;;;;;;;;4983918;28;20191;-81
2021/11/17 15:10:27;;;;;;;8.93;2.97;;;;;;;;;;4999527;28;20281;-80
2021/11/17 15:12:53;;;;;;;2.60;2.40;;;;;;;;;;4999748;28;20181;-80
2021/11/17 15:15:22;;;;;;;5.65;2.35;;;;;;;;;;5002407;28;20303;-81
2021/11/17 15:17:48;;;;;;;2.45;1.75;;;;;;;;;;4999388;28;20326;-81
2021/11/17 15:20:15;;;;;;;5.60;2.03;;;;;;;;;;4994192;28;20229;-83
2021/11/17 15:22:42;;;;;;;6.20;1.70;;;;;;;;;;4978666;28;20674;-82
2021/11/17 15:25:09;;;;;;;3.90;1.90;;;;;;;;;;4979667;28;20204;-81
2021/11/17 15:27:40;;;;;;;6.00;2.63;;;;;;;;;;4984449;28;20229;-81
2021/11/17 15:30:08;;;;;;;3.70;2.67;;;;;;;;;;4979843;28;20184;-82
2021/11/17 15:32:34;;;;;;;4.90;3.25;;;;;;;;;;5012968;28;20659;-82
2021/11/17 15:35:00;;;;;;;5.13;2.80;;;;;;;;;;4999488;28;20236;-81
2021/11/17 15:37:26;;;;;;;6.25;3.70;;;;;;;;;;4982811;28;20251;-82
2021/11/17 15:39:52;;;;;;;9.45;3.85;;;;;;;;;;4999392;28;20183;-82
2021/11/17 15:42:19;;;;;;;5.50;3.85;;;;;;;;;;5000799;28;20185;-80
2021/11/17 15:44:45;;;;;;;4.18;3.00;;;;;;;;;;4982804;28;20193;-82
2021/11/17 15:47:11;;;;;;;7.05;3.60;;;;;;;;;;4980878;28;20200;-81
2021/11/17 15:49:39;;;;;;;5.88;3.80;;;;;;;;;;4998131;28;20184;-82
2021/11/17 15:52:05;;;;;;;10.55;3.30;;;;;;;;;;4994817;28;20240;-82
2021/11/17 15:54:32;;;;;;;9.93;5.95;;;;;;;;;;5001360;28;20199;-82
2021/11/17 15:56:58;;;;;;;6.32;3.42;;;;;;;;;;4997353;28;20650;-82
2021/11/17 15:59:24;;;;;;;6.18;2.60;;;;;;;;;;4997102;28;20255;-82
2021/11/17 16:01:51;;;;;;;9.30;4.00;;;;;;;;;;4997364;28;20442;-82
2021/11/17 16:04:17;;;;;;;4.50;3.00;;;;;;;;;;4983582;28;20588;-83
2021/11/17 16:06:59;;;;;;;7.07;4.10;;;;;;;;;;5000343;28;20176;-81
2021/11/17 16:09:26;;;;;;;13.35;5.75;;;;;;;;;;4985709;28;20218;-82
2021/11/17 16:11:52;;;;;;;15.90;6.60;;;;;;;;;;4982401;28;20234;-82
2021/11/17 16:14:19;;;;;;;9.35;5.70;;;;;;;;;;4995326;28;20200;-82
2021/11/17 16:16:46;;;;;;;4.55;2.58;;;;;;;;;;4998192;28;20251;-83
2021/11/17 16:19:13;;;;;;;11.20;3.20;;;;;;;;;;4996681;28;20184;-82
2021/11/17 16:21:39;;;;;;;5.78;2.95;;;;;;;;;;4992861;28;20510;-81
2021/11/17 16:26:50;;;;;;;4.22;2.75;;;;;;;;;;4981695;28;20227;-82
2021/11/17 16:29:17;;;;;;;4.65;3.60;;;;;;;;;;4981261;28;20222;-80
2021/11/17 16:31:43;;;;;;;3.67;3.15;;;;;;;;;;4981472;28;20196;-82
2021/11/17 16:34:10;;;;;;;5.40;3.00;;;;;;;;;;4983721;28;20295;-82
2021/11/17 16:36:38;;;;;;;6.50;2.58;;;;;;;;;;4985550;28;20528;-81
2021/11/17 16:39:05;;;;;;;5.47;3.30;;;;;;;;;;4997780;28;20183;-82
2021/11/17 16:41:32;;;;;;;5.88;2.90;;;;;;;;;;4981718;28;20192;-82
2021/11/17 16:43:58;;;;;;;5.90;2.78;;;;;;;;;;4982489;28;20191;-82
2021/11/17 16:46:25;;;;;;;5.03;3.17;;;;;;;;;;4982769;28;20176;-82
2021/11/17 16:48:50;;;;;;;4.82;2.83;;;;;;;;;;4998010;28;20653;-82
2021/11/17 16:51:18;;;;;;;5.88;3.25;;;;;;;;;;5000624;28;20203;-82
2021/11/17 16:53:44;;;;;;;12.30;4.63;;;;;;;;;;4980869;28;20216;-82
2021/11/17 16:56:11;;;;;;;9.88;4.22;;;;;;;;;;4982795;28;20311;-82
2021/11/17 16:58:37;;;;;;;12.80;5.18;;;;;;;;;;4997156;28;20213;-79
2021/11/17 17:01:04;;;;;;;13.48;5.72;;;;;;;;;;4997861;28;26675;-82
2021/11/17 17:03:31;;;;;;;5.60;4.50;;;;;;;;;;5000216;28;20763;-82
2021/11/17 17:05:58;;;;;;;6.72;4.97;;;;;;;;;;4998160;28;20211;-82
2021/11/17 17:08:25;;;;;;;6.55;4.63;;;;;;;;;;4982986;28;20194;-81
2021/11/17 17:10:51;;;;;;;10.15;5.25;;;;;;;;;;5007937;28;20238;-81
2021/11/17 17:13:18;;;;;;;7.90;5.68;;;;;;;;;;4997733;28;20307;-81
2021/11/17 17:15:45;;;;;;;11.80;6.85;;;;;;;;;;4997671;28;20223;-81
2021/11/17 17:18:14;;;;;;;12.52;8.07;;;;;;;;;;4993982;28;20188;-81
2021/11/17 17:20:40;;;;;;;13.55;8.07;;;;;;;;;;4976319;28;20291;-81
2021/11/17 17:23:10;;;;;;;12.10;8.02;;;;;;;;;;4975229;28;20270;-81